sensor_id;sensor_type;location;lat;lon;timestamp;pressure;altitude;pressure_sealevel;temperature;humidity
73600;BME280;61877;48.246;9.220;2023-07-29T00:02:20;93871.91;;;15.22;100.00
73600;BME280;61877;48.246;9.220;2023-07-29T00:04:49;93864.59;;;15.26;100.00
73600;BME280;61877;48.246;9.220;2023-07-29T00:07:15;93865.75;;;15.25;100.00
73600;BME280;61877;48.246;9.220;2023-07-29T00:09:40;93870.00;;;15.26;100.00
73600;BME280;61877;48.246;9.220;2023-07-29T00:12:06;93872.38;;;15.31;100.00
73600;BME280;61877;48.246;9.220;2023-07-29T00:14:33;93862.38;;;15.35;100.00
73600;BME280;61877;48.246;9.220;2023-07-29T00:16:59;93864.34;;;15.38;100.00
73600;BME280;61877;48.246;9.220;2023-07-29T00:19:28;93851.66;;;15.42;100.00
73600;BME280;61877;48.246;9.220;2023-07-29T00:21:53;93858.25;;;15.44;100.00
73600;BME280;61877;48.246;9.220;2023-07-29T00:24:24;93850.16;;;15.48;100.00
73600;BME280;61877;48.246;9.220;2023-07-29T00:27:11;93852.53;;;15.53;100.00
73600;BME280;61877;48.246;9.220;2023-07-29T00:29:41;93848.66;;;15.54;100.00
73600;BME280;61877;48.246;9.220;2023-07-29T00:32:08;93844.78;;;15.52;100.00
73600;BME280;61877;48.246;9.220;2023-07-29T00:34:36;93851.31;;;15.47;100.00
73600;BME280;61877;48.246;9.220;2023-07-29T00:37:02;93854.06;;;15.54;100.00
73600;BME280;61877;48.246;9.220;2023-07-29T00:39:28;93851.81;;;15.60;100.00
73600;BME280;61877;48.246;9.220;2023-07-29T00:41:54;93850.66;;;15.61;100.00
73600;BME280;61877;48.246;9.220;2023-07-29T00:44:25;93849.91;;;15.60;100.00
73600;BME280;61877;48.246;9.220;2023-07-29T00:50:12;93846.44;;;15.63;100.00
73600;BME280;61877;48.246;9.220;2023-07-29T00:52:48;93848.75;;;15.65;100.00
73600;BME280;61877;48.246;9.220;2023-07-29T00:55:18;93858.78;;;15.64;100.00
73600;BME280;61877;48.246;9.220;2023-07-29T00:57:44;93856.13;;;15.68;100.00
73600;BME280;61877;48.246;9.220;2023-07-29T01:00:11;93849.56;;;15.69;100.00
73600;BME280;61877;48.246;9.220;2023-07-29T01:02:38;93846.09;;;15.68;100.00
73600;BME280;61877;48.246;9.220;2023-07-29T01:05:05;93837.16;;;15.64;100.00
73600;BME280;61877;48.246;9.220;2023-07-29T01:07:57;93840.28;;;15.66;100.00
73600;BME280;61877;48.246;9.220;2023-07-29T01:10:35;93835.28;;;15.68;100.00
73600;BME280;61877;48.246;9.220;2023-07-29T01:13:09;93838.00;;;15.72;100.00
73600;BME280;61877;48.246;9.220;2023-07-29T01:15:43;93840.34;;;15.73;100.00
73600;BME280;61877;48.246;9.220;2023-07-29T01:18:18;93835.34;;;15.75;100.00
73600;BME280;61877;48.246;9.220;2023-07-29T01:20:47;93834.97;;;15.77;100.00
73600;BME280;61877;48.246;9.220;2023-07-29T01:23:23;93838.81;;;15.79;100.00
73600;BME280;61877;48.246;9.220;2023-07-29T01:26:08;93840.38;;;15.80;100.00
73600;BME280;61877;48.246;9.220;2023-07-29T01:28:51;93838.06;;;15.82;100.00
73600;BME280;61877;48.246;9.220;2023-07-29T01:31:23;93844.25;;;15.83;100.00
73600;BME280;61877;48.246;9.220;2023-07-29T01:34:01;93842.34;;;15.83;100.00
73600;BME280;61877;48.246;9.220;2023-07-29T01:36:32;93842.72;;;15.85;100.00
73600;BME280;61877;48.246;9.220;2023-07-29T01:39:03;93834.25;;;15.87;100.00
73600;BME280;61877;48.246;9.220;2023-07-29T01:41:31;93842.38;;;15.90;100.00
73600;BME280;61877;48.246;9.220;2023-07-29T01:43:58;93830.41;;;15.91;100.00
73600;BME280;61877;48.246;9.220;2023-07-29T01:46:25;93832.00;;;15.96;100.00
73600;BME280;61877;48.246;9.220;2023-07-29T01:48:59;93825.78;;;15.95;100.00
73600;BME280;61877;48.246;9.220;2023-07-29T01:51:25;93824.25;;;15.94;100.00
73600;BME280;61877;48.246;9.220;2023-07-29T01:53:50;93825.78;;;15.92;100.00
73600;BME280;61877;48.246;9.220;2023-07-29T01:56:20;93824.25;;;15.94;100.00
73600;BME280;61877;48.246;9.220;2023-07-29T01:58:46;93821.53;;;15.94;100.00
73600;BME280;61877;48.246;9.220;2023-07-29T02:01:17;93820.75;;;15.94;100.00
73600;BME280;61877;48.246;9.220;2023-07-29T02:03:43;93805.31;;;15.94;100.00
73600;BME280;61877;48.246;9.220;2023-07-29T02:06:09;93806.47;;;15.93;100.00
73600;BME280;61877;48.246;9.220;2023-07-29T02:08:38;93816.13;;;15.94;100.00
73600;BME280;61877;48.246;9.220;2023-07-29T02:11:03;93809.19;;;15.93;100.00
73600;BME280;61877;48.246;9.220;2023-07-29T02:13:30;93806.47;;;15.93;100.00
73600;BME280;61877;48.246;9.220;2023-07-29T02:15:56;93809.94;;;15.94;100.00
73600;BME280;61877;48.246;9.220;2023-07-29T02:18:22;93802.59;;;15.94;100.00
73600;BME280;61877;48.246;9.220;2023-07-29T02:20:47;93801.81;;;15.94;100.00
73600;BME280;61877;48.246;9.220;2023-07-29T02:23:13;93801.03;;;15.90;100.00
73600;BME280;61877;48.246;9.220;2023-07-29T02:25:38;93797.16;;;15.91;100.00
73600;BME280;61877;48.246;9.220;2023-07-29T02:28:04;93800.66;;;15.91;100.00
73600;BME280;61877;48.246;9.220;2023-07-29T02:30:31;93806.41;;;15.86;100.00
73600;BME280;61877;48.246;9.220;2023-07-29T02:32:59;93797.88;;;15.81;100.00
73600;BME280;61877;48.246;9.220;2023-07-29T02:35:25;93803.31;;;15.84;100.00
73600;BME280;61877;48.246;9.220;2023-07-29T02:38:08;93803.31;;;15.84;100.00
73600;BME280;61877;48.246;9.220;2023-07-29T02:40:39;93806.81;;;15.85;100.00
73600;BME280;61877;48.246;9.220;2023-07-29T02:43:05;93801.78;;;15.83;100.00
73600;BME280;61877;48.246;9.220;2023-07-29T02:48:14;93797.88;;;15.81;100.00
73600;BME280;61877;48.246;9.220;2023-07-29T02:50:40;93801.38;;;15.81;100.00
73600;BME280;61877;48.246;9.220;2023-07-29T02:53:06;93801.75;;;15.80;100.00
73600;BME280;61877;48.246;9.220;2023-07-29T02:55:34;93799.03;;;15.80;100.00
73600;BME280;61877;48.246;9.220;2023-07-29T02:57:59;93798.25;;;15.79;100.00
73600;BME280;61877;48.246;9.220;2023-07-29T03:00:24;93808.66;;;15.77;100.00
73600;BME280;61877;48.246;9.220;2023-07-29T03:03:22;93800.94;;;15.76;100.00
73600;BME280;61877;48.246;9.220;2023-07-29T03:05:59;93794.75;;;15.72;100.00
73600;BME280;61877;48.246;9.220;2023-07-29T03:08:24;93790.47;;;15.71;100.00
73600;BME280;61877;48.246;9.220;2023-07-29T03:10:50;93787.00;;;15.70;100.00
73600;BME280;61877;48.246;9.220;2023-07-29T03:13:15;93792.38;;;15.67;100.00
73600;BME280;61877;48.246;9.220;2023-07-29T03:15:48;93789.28;;;15.65;100.00
73600;BME280;61877;48.246;9.220;2023-07-29T03:18:17;93793.09;;;15.64;100.00
73600;BME280;61877;48.246;9.220;2023-07-29T03:21:04;93786.53;;;15.61;100.00
73600;BME280;61877;48.246;9.220;2023-07-29T03:23:40;93786.53;;;15.61;100.00
73600;BME280;61877;48.246;9.220;2023-07-29T03:26:05;93789.66;;;15.63;100.00
73600;BME280;61877;48.246;9.220;2023-07-29T03:28:46;93787.31;;;15.62;100.00
73600;BME280;61877;48.246;9.220;2023-07-29T03:31:12;93773.03;;;15.61;100.00
73600;BME280;61877;48.246;9.220;2023-07-29T03:33:40;93771.84;;;15.62;100.00
73600;BME280;61877;48.246;9.220;2023-07-29T03:36:07;93768.00;;;15.63;100.00
73600;BME280;61877;48.246;9.220;2023-07-29T03:38:45;93774.19;;;15.60;100.00
73600;BME280;61877;48.246;9.220;2023-07-29T03:41:11;93767.59;;;15.61;100.00
73600;BME280;61877;48.246;9.220;2023-07-29T03:43:36;93773.81;;;15.62;100.00
73600;BME280;61877;48.246;9.220;2023-07-29T03:46:16;93770.31;;;15.61;100.00
73600;BME280;61877;48.246;9.220;2023-07-29T03:48:42;93774.97;;;15.64;100.00
73600;BME280;61877;48.246;9.220;2023-07-29T03:51:22;93776.13;;;15.63;100.00
73600;BME280;61877;48.246;9.220;2023-07-29T04:01:50;93768.03;;;15.67;100.00
73600;BME280;61877;48.246;9.220;2023-07-29T04:11:04;93758.75;;;15.68;100.00
73600;BME280;61877;48.246;9.220;2023-07-29T04:16:38;93754.13;;;15.65;100.00
73600;BME280;61877;48.246;9.220;2023-07-29T04:17:14;93751.41;;;15.65;100.00
73600;BME280;61877;48.246;9.220;2023-07-29T04:19:52;93767.22;;;15.63;100.00
73600;BME280;61877;48.246;9.220;2023-07-29T04:22:34;93778.44;;;15.65;100.00
73600;BME280;61877;48.246;9.220;2023-07-29T04:25:24;93773.44;;;15.63;100.00
73600;BME280;61877;48.246;9.220;2023-07-29T04:28:23;93776.16;;;15.67;100.00
73600;BME280;61877;48.246;9.220;2023-07-29T04:34:37;93772.38;;;15.78;100.00
73600;BME280;61877;48.246;9.220;2023-07-29T04:37:33;93779.38;;;15.86;100.00
73600;BME280;61877;48.246;9.220;2023-07-29T04:41:40;93778.66;;;15.96;100.00
73600;BME280;61877;48.246;9.220;2023-07-29T04:43:38;93781.78;;;15.98;100.00
73600;BME280;61877;48.246;9.220;2023-07-29T04:52:02;93779.53;;;16.14;100.00
73600;BME280;61877;48.246;9.220;2023-07-29T04:54:56;93775.63;;;16.12;100.00
73600;BME280;61877;48.246;9.220;2023-07-29T05:06:29;93787.25;;;16.12;100.00
73600;BME280;61877;48.246;9.220;2023-07-29T05:09:27;93785.75;;;16.25;100.00
73600;BME280;61877;48.246;9.220;2023-07-29T05:14:28;93784.38;;;16.52;100.00
73600;BME280;61877;48.246;9.220;2023-07-29T05:20:09;93772.91;;;16.98;100.00
73600;BME280;61877;48.246;9.220;2023-07-29T05:22:36;93779.88;;;17.06;100.00
73600;BME280;61877;48.246;9.220;2023-07-29T05:25:06;93778.34;;;17.15;100.00
73600;BME280;61877;48.246;9.220;2023-07-29T05:28:08;93786.88;;;17.17;100.00
73600;BME280;61877;48.246;9.220;2023-07-29T05:33:04;93787.22;;;17.02;100.00
73600;BME280;61877;48.246;9.220;2023-07-29T05:35:55;93792.63;;;16.98;100.00
73600;BME280;61877;48.246;9.220;2023-07-29T05:38:38;93797.25;;;16.91;100.00
73600;BME280;61877;48.246;9.220;2023-07-29T05:41:39;93793.38;;;16.92;100.00
73600;BME280;61877;48.246;9.220;2023-07-29T05:44:20;93803.09;;;17.03;100.00
73600;BME280;61877;48.246;9.220;2023-07-29T05:46:48;93804.69;;;17.22;100.00
73600;BME280;61877;48.246;9.220;2023-07-29T05:49:14;93805.06;;;17.38;100.00
73600;BME280;61877;48.246;9.220;2023-07-29T05:51:41;93796.94;;;17.45;100.00
73600;BME280;61877;48.246;9.220;2023-07-29T06:00:42;93776.78;;;18.02;100.00
73600;BME280;61877;48.246;9.220;2023-07-29T06:03:07;93790.31;;;18.27;98.91
73600;BME280;61877;48.246;9.220;2023-07-29T06:05:33;93777.88;;;18.43;98.44
73600;BME280;61877;48.246;9.220;2023-07-29T06:08:34;93772.00;;;18.55;96.67
73600;BME280;61877;48.246;9.220;2023-07-29T06:11:22;93772.81;;;18.45;97.12
73600;BME280;61877;48.246;9.220;2023-07-29T06:13:53;93775.06;;;18.64;97.64
73600;BME280;61877;48.246;9.220;2023-07-29T06:16:18;93768.78;;;18.81;97.75
73600;BME280;61877;48.246;9.220;2023-07-29T06:18:43;93774.19;;;18.85;95.42
73600;BME280;61877;48.246;9.220;2023-07-29T06:21:18;93765.25;;;18.88;96.83
73600;BME280;61877;48.246;9.220;2023-07-29T06:23:48;93774.84;;;19.10;95.09
73600;BME280;61877;48.246;9.220;2023-07-29T06:26:25;93774.88;;;18.99;95.35
73600;BME280;61877;48.246;9.220;2023-07-29T06:28:52;93776.06;;;18.98;95.03
73600;BME280;61877;48.246;9.220;2023-07-29T06:31:18;93777.66;;;18.89;95.30
73600;BME280;61877;48.246;9.220;2023-07-29T06:33:44;93776.91;;;18.85;95.55
73600;BME280;61877;48.246;9.220;2023-07-29T06:36:09;93779.63;;;18.85;96.04
73600;BME280;61877;48.246;9.220;2023-07-29T06:38:35;93779.91;;;19.04;95.79
73600;BME280;61877;48.246;9.220;2023-07-29T06:41:04;93778.09;;;19.46;96.00
73600;BME280;61877;48.246;9.220;2023-07-29T06:43:29;93781.81;;;20.10;91.45
73600;BME280;61877;48.246;9.220;2023-07-29T06:45:59;93780.63;;;20.14;89.43
73600;BME280;61877;48.246;9.220;2023-07-29T06:48:28;93779.94;;;20.44;88.76
73600;BME280;61877;48.246;9.220;2023-07-29T06:50:54;93781.00;;;20.87;87.12
73600;BME280;61877;48.246;9.220;2023-07-29T06:53:19;93781.91;;;20.77;86.65
73600;BME280;61877;48.246;9.220;2023-07-29T06:55:44;93777.75;;;20.96;85.93
73600;BME280;61877;48.246;9.220;2023-07-29T06:58:10;93790.81;;;21.11;85.41
73600;BME280;61877;48.246;9.220;2023-07-29T07:00:36;93781.81;;;21.14;82.52
73600;BME280;61877;48.246;9.220;2023-07-29T07:03:02;93784.75;;;21.27;83.74
73600;BME280;61877;48.246;9.220;2023-07-29T07:05:28;93797.19;;;21.01;84.03
73600;BME280;61877;48.246;9.220;2023-07-29T07:07:53;93788.38;;;21.20;84.01
73600;BME280;61877;48.246;9.220;2023-07-29T07:10:19;93785.53;;;21.27;82.72
73600;BME280;61877;48.246;9.220;2023-07-29T07:12:44;93785.13;;;21.29;82.62
73600;BME280;61877;48.246;9.220;2023-07-29T07:15:10;93780.66;;;21.15;83.43
73600;BME280;61877;48.246;9.220;2023-07-29T07:17:35;93777.50;;;21.17;83.26
73600;BME280;61877;48.246;9.220;2023-07-29T07:20:03;93779.81;;;21.18;84.65
73600;BME280;61877;48.246;9.220;2023-07-29T07:22:28;93785.81;;;21.06;84.55
73600;BME280;61877;48.246;9.220;2023-07-29T07:24:54;93787.44;;;21.30;81.32
73600;BME280;61877;48.246;9.220;2023-07-29T07:27:19;93790.59;;;21.55;81.57
73600;BME280;61877;48.246;9.220;2023-07-29T07:29:44;93783.09;;;21.59;82.70
73600;BME280;61877;48.246;9.220;2023-07-29T07:32:10;93798.38;;;21.84;81.78
73600;BME280;61877;48.246;9.220;2023-07-29T07:34:35;93790.03;;;21.91;80.07
73600;BME280;61877;48.246;9.220;2023-07-29T07:37:02;93781.59;;;22.05;81.18
73600;BME280;61877;48.246;9.220;2023-07-29T07:39:27;93791.06;;;22.43;79.91
73600;BME280;61877;48.246;9.220;2023-07-29T07:41:53;93794.25;;;22.80;76.28
73600;BME280;61877;48.246;9.220;2023-07-29T07:44:18;93783.38;;;22.96;74.12
73600;BME280;61877;48.246;9.220;2023-07-29T07:46:44;93792.81;;;22.76;74.75
73600;BME280;61877;48.246;9.220;2023-07-29T07:49:09;93788.53;;;22.52;76.74
73600;BME280;61877;48.246;9.220;2023-07-29T07:51:34;93784.69;;;22.30;76.41
73600;BME280;61877;48.246;9.220;2023-07-29T07:54:01;93784.34;;;22.05;80.82
73600;BME280;61877;48.246;9.220;2023-07-29T07:56:26;93792.94;;;21.53;82.54
73600;BME280;61877;48.246;9.220;2023-07-29T07:58:52;93795.69;;;21.27;83.86
73600;BME280;61877;48.246;9.220;2023-07-29T08:01:17;93799.19;;;20.97;86.21
73600;BME280;61877;48.246;9.220;2023-07-29T08:03:43;93792.13;;;20.66;86.69
73600;BME280;61877;48.246;9.220;2023-07-29T08:06:08;93802.56;;;20.41;86.00
73600;BME280;61877;48.246;9.220;2023-07-29T08:08:33;93811.63;;;20.31;89.57
73600;BME280;61877;48.246;9.220;2023-07-29T08:11:00;93812.22;;;20.05;91.00
73600;BME280;61877;48.246;9.220;2023-07-29T08:13:26;93812.72;;;19.93;93.10
73600;BME280;61877;48.246;9.220;2023-07-29T08:15:52;93819.38;;;19.88;92.63
73600;BME280;61877;48.246;9.220;2023-07-29T08:18:18;93817.44;;;19.85;93.80
73600;BME280;61877;48.246;9.220;2023-07-29T08:20:52;93823.31;;;19.80;96.80
73600;BME280;61877;48.246;9.220;2023-07-29T08:23:17;93824.09;;;19.81;100.00
73600;BME280;61877;48.246;9.220;2023-07-29T08:25:42;93807.38;;;19.82;100.00
73600;BME280;61877;48.246;9.220;2023-07-29T08:28:09;93810.91;;;19.76;100.00
73600;BME280;61877;48.246;9.220;2023-07-29T08:30:37;93826.47;;;19.75;98.07
73600;BME280;61877;48.246;9.220;2023-07-29T08:33:02;93822.94;;;19.78;99.94
73600;BME280;61877;48.246;9.220;2023-07-29T08:35:28;93819.47;;;19.78;100.00
73600;BME280;61877;48.246;9.220;2023-07-29T08:37:53;93818.94;;;19.93;99.25
73600;BME280;61877;48.246;9.220;2023-07-29T08:40:22;93809.03;;;20.17;97.60
73600;BME280;61877;48.246;9.220;2023-07-29T08:42:53;93809.41;;;20.19;94.99
73600;BME280;61877;48.246;9.220;2023-07-29T08:45:22;93812.31;;;20.38;93.87
73600;BME280;61877;48.246;9.220;2023-07-29T08:47:50;93814.59;;;20.77;93.88
73600;BME280;61877;48.246;9.220;2023-07-29T08:50:19;93807.06;;;21.48;91.99
73600;BME280;61877;48.246;9.220;2023-07-29T08:52:46;93802.94;;;21.63;85.91
73600;BME280;61877;48.246;9.220;2023-07-29T08:55:13;93797.81;;;22.38;86.10
73600;BME280;61877;48.246;9.220;2023-07-29T08:57:38;93807.44;;;22.23;82.42
73600;BME280;61877;48.246;9.220;2023-07-29T09:00:05;93804.59;;;22.73;77.60
73600;BME280;61877;48.246;9.220;2023-07-29T09:02:32;93806.47;;;22.76;79.28
73600;BME280;61877;48.246;9.220;2023-07-29T09:04:58;93808.88;;;22.51;76.92
73600;BME280;61877;48.246;9.220;2023-07-29T09:07:24;93807.91;;;22.41;76.86
73600;BME280;61877;48.246;9.220;2023-07-29T09:09:50;93805.69;;;22.56;75.49
73600;BME280;61877;48.246;9.220;2023-07-29T09:12:16;93801.91;;;22.89;76.11
73600;BME280;61877;48.246;9.220;2023-07-29T09:14:41;93807.44;;;22.85;75.62
73600;BME280;61877;48.246;9.220;2023-07-29T09:17:07;93821.41;;;22.91;81.84
73600;BME280;61877;48.246;9.220;2023-07-29T09:19:35;93810.63;;;22.84;74.29
73600;BME280;61877;48.246;9.220;2023-07-29T09:22:01;93807.41;;;22.46;75.16
73600;BME280;61877;48.246;9.220;2023-07-29T09:24:26;93804.88;;;22.98;73.97
73600;BME280;61877;48.246;9.220;2023-07-29T09:26:52;93798.50;;;23.21;73.03
73600;BME280;61877;48.246;9.220;2023-07-29T09:29:21;93798.06;;;23.42;71.56
73600;BME280;61877;48.246;9.220;2023-07-29T09:31:47;93796.69;;;23.34;68.54
73600;BME280;61877;48.246;9.220;2023-07-29T09:34:15;93806.59;;;23.63;68.33
73600;BME280;61877;48.246;9.220;2023-07-29T09:36:42;93788.38;;;24.05;68.78
73600;BME280;61877;48.246;9.220;2023-07-29T09:39:10;93787.31;;;24.47;66.48
73600;BME280;61877;48.246;9.220;2023-07-29T09:41:36;93782.28;;;24.30;66.14
73600;BME280;61877;48.246;9.220;2023-07-29T09:44:04;93771.09;;;24.53;63.95
73600;BME280;61877;48.246;9.220;2023-07-29T09:46:32;93778.22;;;25.20;60.49
73600;BME280;61877;48.246;9.220;2023-07-29T09:48:59;93780.69;;;25.43;61.29
73600;BME280;61877;48.246;9.220;2023-07-29T09:51:24;93789.84;;;25.11;62.76
73600;BME280;61877;48.246;9.220;2023-07-29T09:53:51;93790.63;;;25.12;63.70
73600;BME280;61877;48.246;9.220;2023-07-29T09:56:17;93796.69;;;23.85;64.08
73600;BME280;61877;48.246;9.220;2023-07-29T09:58:43;93811.03;;;23.73;68.86
73600;BME280;61877;48.246;9.220;2023-07-29T10:01:09;93809.69;;;22.90;76.78
73600;BME280;61877;48.246;9.220;2023-07-29T10:03:35;93805.47;;;22.01;78.16
73600;BME280;61877;48.246;9.220;2023-07-29T10:06:02;93816.84;;;21.46;78.13
73600;BME280;61877;48.246;9.220;2023-07-29T10:08:29;93830.41;;;21.23;80.41
73600;BME280;61877;48.246;9.220;2023-07-29T10:10:58;93813.44;;;22.15;83.70
73600;BME280;61877;48.246;9.220;2023-07-29T10:13:25;93804.44;;;22.80;77.59
73600;BME280;61877;48.246;9.220;2023-07-29T10:15:51;93812.63;;;23.19;75.19
73600;BME280;61877;48.246;9.220;2023-07-29T10:18:19;93801.25;;;23.56;75.86
73600;BME280;61877;48.246;9.220;2023-07-29T10:20:45;93799.94;;;23.64;74.33
73600;BME280;61877;48.246;9.220;2023-07-29T10:23:12;93809.81;;;23.58;70.23
73600;BME280;61877;48.246;9.220;2023-07-29T10:25:43;93794.06;;;24.14;70.98
73600;BME280;61877;48.246;9.220;2023-07-29T10:28:15;93787.66;;;24.33;70.06
73600;BME280;61877;48.246;9.220;2023-07-29T10:30:42;93792.88;;;24.44;67.46
73600;BME280;61877;48.246;9.220;2023-07-29T10:33:07;93790.53;;;24.13;64.60
73600;BME280;61877;48.246;9.220;2023-07-29T10:35:33;93792.28;;;24.52;63.02
73600;BME280;61877;48.246;9.220;2023-07-29T10:37:59;93788.47;;;24.01;63.68
73600;BME280;61877;48.246;9.220;2023-07-29T10:40:25;93779.00;;;24.35;64.77
73600;BME280;61877;48.246;9.220;2023-07-29T10:43:00;93784.53;;;24.92;60.67
73600;BME280;61877;48.246;9.220;2023-07-29T10:45:36;93794.97;;;24.23;59.98
73600;BME280;61877;48.246;9.220;2023-07-29T10:48:05;93785.28;;;23.87;60.29
73600;BME280;61877;48.246;9.220;2023-07-29T10:50:31;93785.88;;;23.62;60.10
73600;BME280;61877;48.246;9.220;2023-07-29T10:52:56;93782.44;;;23.58;61.21
73600;BME280;61877;48.246;9.220;2023-07-29T10:55:27;93784.00;;;23.91;59.90
73600;BME280;61877;48.246;9.220;2023-07-29T10:58:04;93779.34;;;23.56;60.98
73600;BME280;61877;48.246;9.220;2023-07-29T11:00:31;93774.41;;;23.67;61.66
73600;BME280;61877;48.246;9.220;2023-07-29T11:02:59;93791.88;;;23.89;59.14
73600;BME280;61877;48.246;9.220;2023-07-29T11:05:25;93794.47;;;24.12;58.34
73600;BME280;61877;48.246;9.220;2023-07-29T11:07:50;93794.19;;;24.84;57.86
73600;BME280;61877;48.246;9.220;2023-07-29T11:10:16;93795.63;;;24.88;58.54
73600;BME280;61877;48.246;9.220;2023-07-29T11:12:45;93783.66;;;25.36;56.75
73600;BME280;61877;48.246;9.220;2023-07-29T11:15:21;93792.16;;;24.72;54.41
73600;BME280;61877;48.246;9.220;2023-07-29T11:17:49;93796.75;;;25.03;56.21
73600;BME280;61877;48.246;9.220;2023-07-29T11:20:15;93790.38;;;25.06;55.42
73600;BME280;61877;48.246;9.220;2023-07-29T11:22:41;93794.78;;;25.45;53.45
73600;BME280;61877;48.246;9.220;2023-07-29T11:25:09;93791.56;;;25.97;51.86
73600;BME280;61877;48.246;9.220;2023-07-29T11:27:34;93782.88;;;25.98;51.99
73600;BME280;61877;48.246;9.220;2023-07-29T11:30:01;93786.47;;;25.32;51.99
73600;BME280;61877;48.246;9.220;2023-07-29T11:32:27;93790.38;;;25.06;51.82
73600;BME280;61877;48.246;9.220;2023-07-29T11:34:54;93794.16;;;25.25;50.94
73600;BME280;61877;48.246;9.220;2023-07-29T11:37:20;93786.22;;;25.14;50.04
73600;BME280;61877;48.246;9.220;2023-07-29T11:39:45;93793.16;;;25.19;51.33
73600;BME280;61877;48.246;9.220;2023-07-29T11:42:11;93780.69;;;25.43;51.51
73600;BME280;61877;48.246;9.220;2023-07-29T11:44:36;93783.22;;;25.37;50.86
73600;BME280;61877;48.246;9.220;2023-07-29T11:47:03;93791.47;;;25.75;50.98
73600;BME280;61877;48.246;9.220;2023-07-29T11:49:32;93773.88;;;25.98;49.12
73600;BME280;61877;48.246;9.220;2023-07-29T11:51:59;93788.28;;;25.64;48.28
73600;BME280;61877;48.246;9.220;2023-07-29T11:54:25;93780.25;;;25.82;49.60
73600;BME280;61877;48.246;9.220;2023-07-29T11:56:50;93778.03;;;25.27;49.01
73600;BME280;61877;48.246;9.220;2023-07-29T11:59:16;93774.31;;;25.96;48.90
73600;BME280;61877;48.246;9.220;2023-07-29T12:01:41;93771.91;;;25.73;49.71
73600;BME280;61877;48.246;9.220;2023-07-29T12:04:07;93761.56;;;26.15;49.05
73600;BME280;61877;48.246;9.220;2023-07-29T12:06:33;93738.34;;;26.93;46.83
73600;BME280;61877;48.246;9.220;2023-07-29T12:09:00;93743.81;;;26.84;45.57
73600;BME280;61877;48.246;9.220;2023-07-29T12:11:26;93740.94;;;26.53;46.12
73600;BME280;61877;48.246;9.220;2023-07-29T12:13:53;93736.38;;;26.72;45.52
73600;BME280;61877;48.246;9.220;2023-07-29T12:16:18;93731.50;;;27.19;46.15
73600;BME280;61877;48.246;9.220;2023-07-29T12:18:44;93737.97;;;27.04;46.58
73600;BME280;61877;48.246;9.220;2023-07-29T12:21:10;93730.09;;;27.45;44.65
73600;BME280;61877;48.246;9.220;2023-07-29T12:23:35;93731.31;;;27.44;44.33
73600;BME280;61877;48.246;9.220;2023-07-29T12:26:02;93733.53;;;27.58;43.66
73600;BME280;61877;48.246;9.220;2023-07-29T12:28:28;93747.56;;;27.51;42.86
73600;BME280;61877;48.246;9.220;2023-07-29T12:30:54;93757.50;;;26.75;43.18
73600;BME280;61877;48.246;9.220;2023-07-29T12:33:29;93754.63;;;26.44;44.22
73600;BME280;61877;48.246;9.220;2023-07-29T12:35:55;93756.59;;;27.00;43.96
73600;BME280;61877;48.246;9.220;2023-07-29T12:38:21;93757.66;;;26.59;43.89
73600;BME280;61877;48.246;9.220;2023-07-29T12:40:46;93759.59;;;26.03;45.59
73600;BME280;61877;48.246;9.220;2023-07-29T12:43:13;93744.34;;;26.23;45.18
73600;BME280;61877;48.246;9.220;2023-07-29T12:45:38;93757.38;;;25.85;46.80
73600;BME280;61877;48.246;9.220;2023-07-29T12:48:04;93766.22;;;26.27;44.26
73600;BME280;61877;48.246;9.220;2023-07-29T12:50:30;93773.13;;;25.85;44.66
73600;BME280;61877;48.246;9.220;2023-07-29T12:52:55;93773.66;;;25.92;44.70
73600;BME280;61877;48.246;9.220;2023-07-29T12:55:20;93756.34;;;26.17;44.95
73600;BME280;61877;48.246;9.220;2023-07-29T12:57:46;93763.38;;;26.30;44.82
73600;BME280;61877;48.246;9.220;2023-07-29T13:00:13;93761.69;;;26.80;43.90
73600;BME280;61877;48.246;9.220;2023-07-29T13:02:39;93753.59;;;26.85;43.45
73600;BME280;61877;48.246;9.220;2023-07-29T13:05:05;93759.47;;;26.40;43.91
73600;BME280;61877;48.246;9.220;2023-07-29T13:07:31;93768.75;;;26.90;43.93
73600;BME280;61877;48.246;9.220;2023-07-29T13:09:56;93771.53;;;26.55;44.18
73600;BME280;61877;48.246;9.220;2023-07-29T13:12:22;93768.13;;;26.17;44.05
73600;BME280;61877;48.246;9.220;2023-07-29T13:14:47;93777.63;;;26.04;45.68
73600;BME280;61877;48.246;9.220;2023-07-29T13:17:14;93772.34;;;25.84;45.39
73600;BME280;61877;48.246;9.220;2023-07-29T13:19:40;93757.84;;;26.43;44.06
73600;BME280;61877;48.246;9.220;2023-07-29T13:22:06;93759.41;;;26.31;44.91
73600;BME280;61877;48.246;9.220;2023-07-29T13:24:31;93769.94;;;26.80;45.29
73600;BME280;61877;48.246;9.220;2023-07-29T13:26:56;93761.34;;;27.21;44.57
73600;BME280;61877;48.246;9.220;2023-07-29T13:29:22;93769.88;;;27.23;46.52
73600;BME280;61877;48.246;9.220;2023-07-29T13:31:47;93769.28;;;27.19;46.36
73600;BME280;61877;48.246;9.220;2023-07-29T13:34:14;93759.41;;;26.65;48.05
73600;BME280;61877;48.246;9.220;2023-07-29T13:36:39;93766.53;;;26.41;48.78
73600;BME280;61877;48.246;9.220;2023-07-29T13:39:05;93774.13;;;26.37;46.13
73600;BME280;61877;48.246;9.220;2023-07-29T13:41:30;93789.13;;;25.99;47.18
73600;BME280;61877;48.246;9.220;2023-07-29T13:43:55;93786.41;;;25.61;47.18
73600;BME280;61877;48.246;9.220;2023-07-29T13:46:21;93795.09;;;26.10;46.63
73600;BME280;61877;48.246;9.220;2023-07-29T13:48:46;93784.22;;;26.06;45.02
73600;BME280;61877;48.246;9.220;2023-07-29T13:51:13;93781.47;;;25.81;47.83
73600;BME280;61877;48.246;9.220;2023-07-29T13:53:38;93784.22;;;25.81;46.33
73600;BME280;61877;48.246;9.220;2023-07-29T13:56:04;93790.53;;;26.28;45.81
73600;BME280;61877;48.246;9.220;2023-07-29T13:58:29;93784.69;;;26.39;45.22
73600;BME280;61877;48.246;9.220;2023-07-29T14:00:55;93803.47;;;26.65;44.83